Archival Weather

Republic

Farmingdale, New York (KFRG)

Report from: Tuesday, January 30, 2024 6:01 PM EST
Current time: Friday, June 21, 2024 3:14 AM EDT

Current weather – Weather history – Daily summaries
Weather forecast

Temperature1.7°C (35.1°F)
Wind chill-1.5°C (29.2°F)
Dew point-1.7°C (28.9°F)
Winds 6 kts (3.1 m/s, 6.9 mph) East (100°)
Visibility10 mi. (16.1 km)
Clouds Ceiling: Broken clouds 1,400 ft. (427 m)
Overcast 4,000 ft. (1,219 m)
Altimeter30.21 in.Hg (1023 mB)
Relative humidity78 %
Density altitude-1,869 ft. (-570 m)
Remarks Automated weather observing station without precipitation discriminator
Flight conditions Marginal Visual Meteorological Conditions
Raw dataKFRG 302301Z 10006KT 10SM BKN014 OVC040 02/M02 A3021 RMK AO1 T00171017
An error has occurred. This application may no longer respond until reloaded. Reload 🗙